Spirit Of New York — WCW9332 — position and weather

sailwx.info

Track history (hours):
 
Tides and Currents Weather Stations Pressure Air Temp Water Temp Dewpoint Dewpoint Depression Visibility Wind Speed Wind Dir Waves Ship Positions

Spirit Of New York

Owner: SPIRIT CRUISES LLC, NEW YORK, NY. More information available from US FCC via Universal Licensing System and Coast Guard Vessel Documentation Center.

Last reported at 2014-Oct-31 15:33 UTC. Time now 2014-Oct-31 15:37 UTC.
Position N 40°46' W 074°01'.

Length 62 m.

Type: Passenger vessel. MMSI: 338897000.

Date/timePositionNaut miles runAvg speedWind from/ knotsBaromVisibWave heightAir tempDewpointWater temp
2014-Oct-31 15:33N 40°46' W 074°01'1 0.0
2014-Oct-30 02:07N 40°45' W 074°01'2 3.4
2014-Oct-30 01:33N 40°43' W 074°01'2 2.0
2014-Oct-30 00:33N 40°43' W 073°59'3 3.2
2014-Oct-29 23:33N 40°45' W 074°01'0 0.5
2014-Oct-29 22:33N 40°45' W 074°01'0 0.0
2014-Oct-29 21:33N 40°45' W 074°01'0 0.0
2014-Oct-29 20:33N 40°45' W 074°01'0 0.0
2014-Oct-29 02:33N 40°45' W 074°01'0 0.2
2014-Oct-29 01:34N 40°45' W 074°01'3 3.0
2014-Oct-29 00:34N 40°42' W 074°01'3 3.0
2014-Oct-28 23:34N 40°45' W 074°01'1 0.7
2014-Oct-28 22:33N 40°46' W 074°01'1 0.8
2014-Oct-28 21:34N 40°45' W 074°01'0 0.0
2014-Oct-27 07:30N 40°45' W 074°01'2 2.3
2014-Oct-27 06:33N 40°43' W 074°01'1 0.8
2014-Oct-27 05:33N 40°42' W 074°01'3 2.9
2014-Oct-27 04:33N 40°45' W 074°01'0 0.0
2014-Oct-27 03:33N 40°45' W 074°01'0 0.0
2014-Oct-27 02:33N 40°45' W 074°01'2 1.6
2014-Oct-27 01:33N 40°43' W 074°01'2 1.6
2014-Oct-27 00:33N 40°42' W 073°59'2 2.4
2014-Oct-26 23:33N 40°45' W 074°01'1 0.0
2014-Oct-26 06:33N 40°44' W 074°01'2 1.8
2014-Oct-26 05:33N 40°42' W 074°00'3 2.7
2014-Oct-26 04:33N 40°45' W 074°01'0 0.0
2014-Oct-26 03:33N 40°45' W 074°01'0 0.0
2014-Oct-26 02:33N 40°45' W 074°01'1 1.1
2014-Oct-26 01:33N 40°44' W 074°01'2 1.9
2014-Oct-26 00:33N 40°42' W 073°59'3 3.2
2014-Oct-25 23:33N 40°46' W 074°01'1 0.7
2014-Oct-25 22:33N 40°45' W 074°01'0 0.0
2014-Oct-25 21:33N 40°45' W 074°01'0 0.0
2014-Oct-25 20:33N 40°45' W 074°01'0 0.0
2014-Oct-25 19:33N 40°45' W 074°01'0 0.0
2014-Oct-25 18:33N 40°45' W 074°01'1 1.2
2014-Oct-25 17:33N 40°44' W 074°01'1 0.9
2014-Oct-25 16:33N 40°43' W 074°02'2 2.1
2014-Oct-25 15:33N 40°45' W 074°01'0 0.0
2014-Oct-25 02:04N 40°45' W 074°01'1 2.4
2014-Oct-25 01:33N 40°44' W 074°01'2 1.8
2014-Oct-25 00:33N 40°42' W 073°60'3 3.0
2014-Oct-24 23:33N 40°45' W 074°01'0 0.4
2014-Oct-24 22:33N 40°45' W 074°01'0 0.0
2014-Oct-24 21:33N 40°45' W 074°01'2 0.4
2014-Oct-24 17:34N 40°43' W 074°01'1 1.4
2014-Oct-24 16:34N 40°42' W 074°02'3 0.2
2014-Oct-24 02:04N 40°45' W 074°01'1 2.1
2014-Oct-24 01:33N 40°44' W 074°01'2 1.7
2014-Oct-24 00:33N 40°42' W 073°60'3 3.2
2014-Oct-23 23:33N 40°46' W 074°00'1 0.7
2014-Oct-23 22:33N 40°45' W 074°01'0 0.0
2014-Oct-23 21:33N 40°45' W 074°01'  
Track history (hours):
 
Tides and Currents Weather Stations Pressure Air Temp Water Temp Dewpoint Dewpoint Depression Visibility Wind Speed Wind Dir Waves Ship Positions

Spirit Of New York

Owner: SPIRIT CRUISES LLC, NEW YORK, NY. More information available from US FCC via Universal Licensing System and Coast Guard Vessel Documentation Center.

Last reported at 2014-Oct-31 15:33 UTC. Time now 2014-Oct-31 15:37 UTC.
Position N 40°46' W 074°01'.

Length 62 m.

Type: Passenger vessel. MMSI: 338897000.

Date/timePositionNaut miles runAvg speedWind from/ knotsBaromVisibWave heightAir tempDewpointWater temp
2014-Oct-31 15:33N 40°46' W 074°01'1 0.0
2014-Oct-30 02:07N 40°45' W 074°01'2 3.4
2014-Oct-30 01:33N 40°43' W 074°01'2 2.0
2014-Oct-30 00:33N 40°43' W 073°59'3 3.2
2014-Oct-29 23:33N 40°45' W 074°01'0 0.5
2014-Oct-29 22:33N 40°45' W 074°01'0 0.0
2014-Oct-29 21:33N 40°45' W 074°01'0 0.0
2014-Oct-29 20:33N 40°45' W 074°01'0 0.0
2014-Oct-29 02:33N 40°45' W 074°01'0 0.2
2014-Oct-29 01:34N 40°45' W 074°01'3 3.0
2014-Oct-29 00:34N 40°42' W 074°01'3 3.0
2014-Oct-28 23:34N 40°45' W 074°01'1 0.7
2014-Oct-28 22:33N 40°46' W 074°01'1 0.8
2014-Oct-28 21:34N 40°45' W 074°01'0 0.0
2014-Oct-27 07:30N 40°45' W 074°01'2 2.3
2014-Oct-27 06:33N 40°43' W 074°01'1 0.8
2014-Oct-27 05:33N 40°42' W 074°01'3 2.9
2014-Oct-27 04:33N 40°45' W 074°01'0 0.0
2014-Oct-27 03:33N 40°45' W 074°01'0 0.0
2014-Oct-27 02:33N 40°45' W 074°01'2 1.6
2014-Oct-27 01:33N 40°43' W 074°01'2 1.6
2014-Oct-27 00:33N 40°42' W 073°59'2 2.4
2014-Oct-26 23:33N 40°45' W 074°01'1 0.0
2014-Oct-26 06:33N 40°44' W 074°01'2 1.8
2014-Oct-26 05:33N 40°42' W 074°00'3 2.7
2014-Oct-26 04:33N 40°45' W 074°01'0 0.0
2014-Oct-26 03:33N 40°45' W 074°01'0 0.0
2014-Oct-26 02:33N 40°45' W 074°01'1 1.1
2014-Oct-26 01:33N 40°44' W 074°01'2 1.9
2014-Oct-26 00:33N 40°42' W 073°59'3 3.2
2014-Oct-25 23:33N 40°46' W 074°01'1 0.7
2014-Oct-25 22:33N 40°45' W 074°01'0 0.0
2014-Oct-25 21:33N 40°45' W 074°01'0 0.0
2014-Oct-25 20:33N 40°45' W 074°01'0 0.0
2014-Oct-25 19:33N 40°45' W 074°01'0 0.0
2014-Oct-25 18:33N 40°45' W 074°01'1 1.2
2014-Oct-25 17:33N 40°44' W 074°01'1 0.9
2014-Oct-25 16:33N 40°43' W 074°02'2 2.1
2014-Oct-25 15:33N 40°45' W 074°01'0 0.0
2014-Oct-25 02:04N 40°45' W 074°01'1 2.4
2014-Oct-25 01:33N 40°44' W 074°01'2 1.8
2014-Oct-25 00:33N 40°42' W 073°60'3 3.0
2014-Oct-24 23:33N 40°45' W 074°01'0 0.4
2014-Oct-24 22:33N 40°45' W 074°01'0 0.0
2014-Oct-24 21:33N 40°45' W 074°01'2 0.4
2014-Oct-24 17:34N 40°43' W 074°01'1 1.4
2014-Oct-24 16:34N 40°42' W 074°02'3 0.2
2014-Oct-24 02:04N 40°45' W 074°01'1 2.1
2014-Oct-24 01:33N 40°44' W 074°01'2 1.7
2014-Oct-24 00:33N 40°42' W 073°60'3 3.2
2014-Oct-23 23:33N 40°46' W 074°00'1 0.7
2014-Oct-23 22:33N 40°45' W 074°01'0 0.0
2014-Oct-23 21:33N 40°45' W 074°01'  

Dump ship's entire track history